sensor_id;sensor_type;location;lat;lon;timestamp;temperature;humidity
35796;DHT22;21916;52.428;13.302;2023-06-26T00:00:23;19.90;99.90
35796;DHT22;21916;52.428;13.302;2023-06-26T00:02:49;19.80;99.90
35796;DHT22;21916;52.428;13.302;2023-06-26T00:05:15;19.80;99.90
35796;DHT22;21916;52.428;13.302;2023-06-26T00:07:41;19.80;99.90
35796;DHT22;21916;52.428;13.302;2023-06-26T00:10:07;19.90;99.90
35796;DHT22;21916;52.428;13.302;2023-06-26T00:12:33;19.70;99.90
35796;DHT22;21916;52.428;13.302;2023-06-26T00:15:00;19.90;99.90
35796;DHT22;21916;52.428;13.302;2023-06-26T00:17:26;19.90;99.90
35796;DHT22;21916;52.428;13.302;2023-06-26T00:19:52;19.90;99.90
35796;DHT22;21916;52.428;13.302;2023-06-26T00:22:18;19.80;99.90
35796;DHT22;21916;52.428;13.302;2023-06-26T00:24:44;19.70;99.90
35796;DHT22;21916;52.428;13.302;2023-06-26T00:27:10;19.70;99.90
35796;DHT22;21916;52.428;13.302;2023-06-26T00:29:36;19.60;99.90
35796;DHT22;21916;52.428;13.302;2023-06-26T00:32:04;19.50;99.90
35796;DHT22;21916;52.428;13.302;2023-06-26T00:34:32;19.50;99.90
35796;DHT22;21916;52.428;13.302;2023-06-26T00:36:59;19.50;99.90
35796;DHT22;21916;52.428;13.302;2023-06-26T00:39:26;19.50;99.90
35796;DHT22;21916;52.428;13.302;2023-06-26T00:41:52;19.50;99.90
35796;DHT22;21916;52.428;13.302;2023-06-26T00:44:21;19.40;99.90
35796;DHT22;21916;52.428;13.302;2023-06-26T00:46:47;19.30;99.90
35796;DHT22;21916;52.428;13.302;2023-06-26T00:49:13;19.30;99.90
35796;DHT22;21916;52.428;13.302;2023-06-26T00:51:40;19.30;99.90
35796;DHT22;21916;52.428;13.302;2023-06-26T00:54:06;19.30;99.90
35796;DHT22;21916;52.428;13.302;2023-06-26T00:56:32;19.30;99.90
35796;DHT22;21916;52.428;13.302;2023-06-26T00:59:00;19.10;99.90
35796;DHT22;21916;52.428;13.302;2023-06-26T01:01:26;19.10;99.90
35796;DHT22;21916;52.428;13.302;2023-06-26T01:03:53;19.10;99.90
35796;DHT22;21916;52.428;13.302;2023-06-26T01:06:21;19.10;99.90
35796;DHT22;21916;52.428;13.302;2023-06-26T01:08:48;19.10;99.90
35796;DHT22;21916;52.428;13.302;2023-06-26T01:11:14;19.10;99.90
35796;DHT22;21916;52.428;13.302;2023-06-26T01:13:42;19.20;99.90
35796;DHT22;21916;52.428;13.302;2023-06-26T01:16:10;19.00;99.90
35796;DHT22;21916;52.428;13.302;2023-06-26T01:18:37;18.90;99.90
35796;DHT22;21916;52.428;13.302;2023-06-26T01:21:08;18.90;99.90
35796;DHT22;21916;52.428;13.302;2023-06-26T01:24:07;19.00;99.90
35796;DHT22;21916;52.428;13.302;2023-06-26T01:26:32;19.00;99.90
35796;DHT22;21916;52.428;13.302;2023-06-26T01:29:04;18.90;99.90
35796;DHT22;21916;52.428;13.302;2023-06-26T01:31:31;18.90;99.90
35796;DHT22;21916;52.428;13.302;2023-06-26T01:33:59;18.90;99.90
35796;DHT22;21916;52.428;13.302;2023-06-26T01:36:27;18.80;99.90
35796;DHT22;21916;52.428;13.302;2023-06-26T01:38:53;18.80;99.90
35796;DHT22;21916;52.428;13.302;2023-06-26T01:41:19;18.80;99.90
35796;DHT22;21916;52.428;13.302;2023-06-26T01:44:16;18.80;99.90
35796;DHT22;21916;52.428;13.302;2023-06-26T01:49:56;18.80;99.90
35796;DHT22;21916;52.428;13.302;2023-06-26T01:52:53;18.80;99.90
35796;DHT22;21916;52.428;13.302;2023-06-26T01:55:24;18.80;99.90
35796;DHT22;21916;52.428;13.302;2023-06-26T01:57:53;18.70;99.90
35796;DHT22;21916;52.428;13.302;2023-06-26T02:00:24;18.70;99.90
35796;DHT22;21916;52.428;13.302;2023-06-26T02:02:52;18.80;99.90
35796;DHT22;21916;52.428;13.302;2023-06-26T02:05:18;18.70;99.90
35796;DHT22;21916;52.428;13.302;2023-06-26T02:07:44;18.60;99.90
35796;DHT22;21916;52.428;13.302;2023-06-26T02:10:10;18.60;99.90
35796;DHT22;21916;52.428;13.302;2023-06-26T02:12:37;18.70;99.90
35796;DHT22;21916;52.428;13.302;2023-06-26T02:15:04;18.60;99.90
35796;DHT22;21916;52.428;13.302;2023-06-26T02:17:31;18.60;99.90
35796;DHT22;21916;52.428;13.302;2023-06-26T02:19:56;18.60;99.90
35796;DHT22;21916;52.428;13.302;2023-06-26T02:22:22;18.60;99.90
35796;DHT22;21916;52.428;13.302;2023-06-26T02:24:48;18.50;99.90
35796;DHT22;21916;52.428;13.302;2023-06-26T02:27:14;18.50;99.90
35796;DHT22;21916;52.428;13.302;2023-06-26T02:29:42;18.50;99.90
35796;DHT22;21916;52.428;13.302;2023-06-26T02:32:08;18.40;99.90
35796;DHT22;21916;52.428;13.302;2023-06-26T02:34:35;18.50;99.90
35796;DHT22;21916;52.428;13.302;2023-06-26T02:37:01;18.40;99.90
35796;DHT22;21916;52.428;13.302;2023-06-26T02:39:28;18.50;99.90
35796;DHT22;21916;52.428;13.302;2023-06-26T02:41:55;18.40;99.90
35796;DHT22;21916;52.428;13.302;2023-06-26T02:44:22;18.40;99.90
35796;DHT22;21916;52.428;13.302;2023-06-26T02:46:48;18.30;99.90
35796;DHT22;21916;52.428;13.302;2023-06-26T02:49:15;18.40;99.90
35796;DHT22;21916;52.428;13.302;2023-06-26T02:51:41;18.40;99.90
35796;DHT22;21916;52.428;13.302;2023-06-26T02:54:20;18.40;99.90
35796;DHT22;21916;52.428;13.302;2023-06-26T02:56:50;18.30;99.90
35796;DHT22;21916;52.428;13.302;2023-06-26T02:59:22;18.40;99.90
35796;DHT22;21916;52.428;13.302;2023-06-26T03:01:48;18.30;99.90
35796;DHT22;21916;52.428;13.302;2023-06-26T03:04:14;18.30;99.90
35796;DHT22;21916;52.428;13.302;2023-06-26T03:06:41;18.40;99.90
35796;DHT22;21916;52.428;13.302;2023-06-26T03:09:07;18.40;99.90
35796;DHT22;21916;52.428;13.302;2023-06-26T03:11:33;18.40;99.90
35796;DHT22;21916;52.428;13.302;2023-06-26T03:13:59;18.50;99.90
35796;DHT22;21916;52.428;13.302;2023-06-26T03:16:24;18.40;99.90
35796;DHT22;21916;52.428;13.302;2023-06-26T03:18:50;18.50;99.90
35796;DHT22;21916;52.428;13.302;2023-06-26T03:21:17;18.60;99.90
35796;DHT22;21916;52.428;13.302;2023-06-26T03:23:43;18.70;99.90
35796;DHT22;21916;52.428;13.302;2023-06-26T03:26:09;18.70;99.90
35796;DHT22;21916;52.428;13.302;2023-06-26T03:28:37;18.80;99.90
35796;DHT22;21916;52.428;13.302;2023-06-26T03:31:03;18.90;99.90
35796;DHT22;21916;52.428;13.302;2023-06-26T03:33:28;18.90;99.90
35796;DHT22;21916;52.428;13.302;2023-06-26T03:35:56;19.00;99.90
35796;DHT22;21916;52.428;13.302;2023-06-26T03:38:22;19.10;99.90
35796;DHT22;21916;52.428;13.302;2023-06-26T03:40:52;19.20;99.90
35796;DHT22;21916;52.428;13.302;2023-06-26T03:43:18;19.30;99.90
35796;DHT22;21916;52.428;13.302;2023-06-26T03:46:02;19.20;99.90
35796;DHT22;21916;52.428;13.302;2023-06-26T03:48:28;19.30;99.90
35796;DHT22;21916;52.428;13.302;2023-06-26T03:50:55;19.30;99.90
35796;DHT22;21916;52.428;13.302;2023-06-26T03:53:21;19.40;99.90
35796;DHT22;21916;52.428;13.302;2023-06-26T03:55:47;19.40;99.90
35796;DHT22;21916;52.428;13.302;2023-06-26T03:58:13;19.50;99.90
35796;DHT22;21916;52.428;13.302;2023-06-26T04:00:38;19.50;99.90
35796;DHT22;21916;52.428;13.302;2023-06-26T04:03:05;19.60;99.90
35796;DHT22;21916;52.428;13.302;2023-06-26T04:05:31;19.60;99.90
35796;DHT22;21916;52.428;13.302;2023-06-26T04:07:57;19.70;99.90
35796;DHT22;21916;52.428;13.302;2023-06-26T04:10:23;19.70;99.90
35796;DHT22;21916;52.428;13.302;2023-06-26T04:12:49;19.70;99.90
35796;DHT22;21916;52.428;13.302;2023-06-26T04:15:15;19.70;99.90
35796;DHT22;21916;52.428;13.302;2023-06-26T04:17:40;19.80;99.90
35796;DHT22;21916;52.428;13.302;2023-06-26T04:20:07;19.90;99.90
35796;DHT22;21916;52.428;13.302;2023-06-26T04:22:34;19.80;99.90
35796;DHT22;21916;52.428;13.302;2023-06-26T04:25:02;19.90;99.90
35796;DHT22;21916;52.428;13.302;2023-06-26T04:27:29;20.00;99.90
35796;DHT22;21916;52.428;13.302;2023-06-26T04:29:55;19.90;99.90
35796;DHT22;21916;52.428;13.302;2023-06-26T04:32:21;20.00;99.90
35796;DHT22;21916;52.428;13.302;2023-06-26T04:34:48;20.00;99.90
35796;DHT22;21916;52.428;13.302;2023-06-26T04:37:14;20.00;99.90
35796;DHT22;21916;52.428;13.302;2023-06-26T04:39:42;20.00;99.90
35796;DHT22;21916;52.428;13.302;2023-06-26T04:42:08;20.00;99.90
35796;DHT22;21916;52.428;13.302;2023-06-26T04:44:36;20.00;99.90
35796;DHT22;21916;52.428;13.302;2023-06-26T04:47:03;20.00;99.90
35796;DHT22;21916;52.428;13.302;2023-06-26T04:49:31;20.10;99.90
35796;DHT22;21916;52.428;13.302;2023-06-26T04:51:56;20.20;99.90
35796;DHT22;21916;52.428;13.302;2023-06-26T04:54:26;20.30;99.90
35796;DHT22;21916;52.428;13.302;2023-06-26T04:56:53;20.40;99.90
35796;DHT22;21916;52.428;13.302;2023-06-26T04:59:19;20.50;99.90
35796;DHT22;21916;52.428;13.302;2023-06-26T05:01:45;20.60;99.90
35796;DHT22;21916;52.428;13.302;2023-06-26T05:04:14;20.80;99.90
35796;DHT22;21916;52.428;13.302;2023-06-26T05:06:41;20.90;99.90
35796;DHT22;21916;52.428;13.302;2023-06-26T05:09:07;20.80;99.90
35796;DHT22;21916;52.428;13.302;2023-06-26T05:11:33;20.70;99.90
35796;DHT22;21916;52.428;13.302;2023-06-26T05:13:58;20.70;99.90
35796;DHT22;21916;52.428;13.302;2023-06-26T05:16:24;20.70;99.90
35796;DHT22;21916;52.428;13.302;2023-06-26T05:18:50;20.70;99.90
35796;DHT22;21916;52.428;13.302;2023-06-26T05:21:17;20.70;99.90
35796;DHT22;21916;52.428;13.302;2023-06-26T05:23:43;20.70;99.90
35796;DHT22;21916;52.428;13.302;2023-06-26T05:26:12;20.70;99.90
35796;DHT22;21916;52.428;13.302;2023-06-26T05:28:39;20.70;99.90
35796;DHT22;21916;52.428;13.302;2023-06-26T05:31:05;20.70;99.90
35796;DHT22;21916;52.428;13.302;2023-06-26T05:33:31;20.70;99.90
35796;DHT22;21916;52.428;13.302;2023-06-26T05:36:01;20.60;99.90
35796;DHT22;21916;52.428;13.302;2023-06-26T05:38:29;20.60;99.90
35796;DHT22;21916;52.428;13.302;2023-06-26T05:40:55;20.60;99.90
35796;DHT22;21916;52.428;13.302;2023-06-26T05:43:22;20.70;99.90
35796;DHT22;21916;52.428;13.302;2023-06-26T05:45:48;20.90;99.90
35796;DHT22;21916;52.428;13.302;2023-06-26T05:48:14;21.00;99.90
35796;DHT22;21916;52.428;13.302;2023-06-26T05:50:41;21.10;99.90
35796;DHT22;21916;52.428;13.302;2023-06-26T05:53:08;21.30;99.90
35796;DHT22;21916;52.428;13.302;2023-06-26T05:55:34;21.40;99.90
35796;DHT22;21916;52.428;13.302;2023-06-26T05:58:01;21.40;99.90
35796;DHT22;21916;52.428;13.302;2023-06-26T06:00:28;21.50;99.90
35796;DHT22;21916;52.428;13.302;2023-06-26T06:02:54;21.50;99.90
35796;DHT22;21916;52.428;13.302;2023-06-26T06:05:21;21.60;99.90
35796;DHT22;21916;52.428;13.302;2023-06-26T06:07:49;21.60;99.90
35796;DHT22;21916;52.428;13.302;2023-06-26T06:10:15;21.80;99.90
35796;DHT22;21916;52.428;13.302;2023-06-26T06:12:41;21.90;99.90
35796;DHT22;21916;52.428;13.302;2023-06-26T06:15:08;22.20;99.90
35796;DHT22;21916;52.428;13.302;2023-06-26T06:17:33;22.20;99.90
35796;DHT22;21916;52.428;13.302;2023-06-26T06:19:59;22.40;99.90
35796;DHT22;21916;52.428;13.302;2023-06-26T06:22:25;22.30;99.90
35796;DHT22;21916;52.428;13.302;2023-06-26T06:24:51;22.40;99.90
35796;DHT22;21916;52.428;13.302;2023-06-26T06:27:17;22.50;99.90
35796;DHT22;21916;52.428;13.302;2023-06-26T06:29:43;22.60;99.90
35796;DHT22;21916;52.428;13.302;2023-06-26T06:32:09;22.50;99.90
35796;DHT22;21916;52.428;13.302;2023-06-26T06:34:35;22.70;99.90
35796;DHT22;21916;52.428;13.302;2023-06-26T06:37:02;22.90;99.90
35796;DHT22;21916;52.428;13.302;2023-06-26T06:39:28;22.90;99.90
35796;DHT22;21916;52.428;13.302;2023-06-26T06:41:54;23.10;99.90
35796;DHT22;21916;52.428;13.302;2023-06-26T06:44:20;23.20;99.90
35796;DHT22;21916;52.428;13.302;2023-06-26T06:46:48;23.30;99.90
35796;DHT22;21916;52.428;13.302;2023-06-26T06:49:14;23.40;99.90
35796;DHT22;21916;52.428;13.302;2023-06-26T06:51:40;23.50;99.90
35796;DHT22;21916;52.428;13.302;2023-06-26T06:54:06;23.60;99.90
35796;DHT22;21916;52.428;13.302;2023-06-26T06:56:32;23.70;99.90
35796;DHT22;21916;52.428;13.302;2023-06-26T06:58:58;23.90;99.90
35796;DHT22;21916;52.428;13.302;2023-06-26T07:01:24;24.00;99.90
35796;DHT22;21916;52.428;13.302;2023-06-26T07:03:49;24.10;99.90
35796;DHT22;21916;52.428;13.302;2023-06-26T07:06:15;24.20;99.90
35796;DHT22;21916;52.428;13.302;2023-06-26T07:08:41;24.30;99.90
35796;DHT22;21916;52.428;13.302;2023-06-26T07:11:07;24.40;99.90
35796;DHT22;21916;52.428;13.302;2023-06-26T07:13:33;24.50;99.90
35796;DHT22;21916;52.428;13.302;2023-06-26T07:15:59;24.70;99.90
35796;DHT22;21916;52.428;13.302;2023-06-26T07:18:25;24.80;99.90
35796;DHT22;21916;52.428;13.302;2023-06-26T07:20:50;24.70;99.90
35796;DHT22;21916;52.428;13.302;2023-06-26T07:23:16;24.80;99.90
35796;DHT22;21916;52.428;13.302;2023-06-26T07:25:42;24.80;99.90
35796;DHT22;21916;52.428;13.302;2023-06-26T07:28:12;24.90;99.90
35796;DHT22;21916;52.428;13.302;2023-06-26T07:30:38;25.00;99.90
35796;DHT22;21916;52.428;13.302;2023-06-26T07:33:05;25.10;99.90
35796;DHT22;21916;52.428;13.302;2023-06-26T07:35:30;25.10;99.90
35796;DHT22;21916;52.428;13.302;2023-06-26T07:37:56;25.30;99.90
35796;DHT22;21916;52.428;13.302;2023-06-26T07:40:22;25.40;99.90
35796;DHT22;21916;52.428;13.302;2023-06-26T07:42:48;25.50;99.90
35796;DHT22;21916;52.428;13.302;2023-06-26T07:45:14;25.40;99.90
35796;DHT22;21916;52.428;13.302;2023-06-26T07:47:41;25.70;99.90
35796;DHT22;21916;52.428;13.302;2023-06-26T07:50:07;25.70;99.90
35796;DHT22;21916;52.428;13.302;2023-06-26T07:52:33;25.80;99.90
35796;DHT22;21916;52.428;13.302;2023-06-26T07:54:59;25.90;99.90
35796;DHT22;21916;52.428;13.302;2023-06-26T07:57:25;25.80;99.90
35796;DHT22;21916;52.428;13.302;2023-06-26T07:59:51;26.00;99.90
35796;DHT22;21916;52.428;13.302;2023-06-26T08:02:17;26.10;99.90
35796;DHT22;21916;52.428;13.302;2023-06-26T08:04:43;26.20;99.90
35796;DHT22;21916;52.428;13.302;2023-06-26T08:07:09;26.20;99.90
35796;DHT22;21916;52.428;13.302;2023-06-26T08:09:36;26.40;99.90
35796;DHT22;21916;52.428;13.302;2023-06-26T08:12:01;26.60;99.90
35796;DHT22;21916;52.428;13.302;2023-06-26T08:14:27;26.70;99.90
35796;DHT22;21916;52.428;13.302;2023-06-26T08:16:53;26.70;99.90
35796;DHT22;21916;52.428;13.302;2023-06-26T08:19:19;26.90;99.90
35796;DHT22;21916;52.428;13.302;2023-06-26T08:21:47;27.00;99.90
35796;DHT22;21916;52.428;13.302;2023-06-26T08:24:13;27.00;99.90
35796;DHT22;21916;52.428;13.302;2023-06-26T08:26:42;27.00;99.90
35796;DHT22;21916;52.428;13.302;2023-06-26T08:29:08;27.10;99.90
35796;DHT22;21916;52.428;13.302;2023-06-26T08:31:34;27.10;99.90
35796;DHT22;21916;52.428;13.302;2023-06-26T08:34:01;27.20;99.90
35796;DHT22;21916;52.428;13.302;2023-06-26T08:36:27;27.30;99.90
35796;DHT22;21916;52.428;13.302;2023-06-26T08:38:53;27.30;99.40
35796;DHT22;21916;52.428;13.302;2023-06-26T08:41:19;27.30;99.90
35796;DHT22;21916;52.428;13.302;2023-06-26T08:43:46;27.40;98.80
35796;DHT22;21916;52.428;13.302;2023-06-26T08:46:12;27.60;99.50
35796;DHT22;21916;52.428;13.302;2023-06-26T08:48:39;27.80;98.50
35796;DHT22;21916;52.428;13.302;2023-06-26T08:51:12;27.80;98.80
35796;DHT22;21916;52.428;13.302;2023-06-26T08:53:57;28.00;98.90
35796;DHT22;21916;52.428;13.302;2023-06-26T08:56:25;28.00;97.70
35796;DHT22;21916;52.428;13.302;2023-06-26T08:58:53;27.90;97.20
35796;DHT22;21916;52.428;13.302;2023-06-26T09:01:20;27.90;97.70
35796;DHT22;21916;52.428;13.302;2023-06-26T09:03:47;28.10;97.60
35796;DHT22;21916;52.428;13.302;2023-06-26T09:06:12;28.20;97.40
35796;DHT22;21916;52.428;13.302;2023-06-26T09:08:38;28.40;97.50
35796;DHT22;21916;52.428;13.302;2023-06-26T09:11:04;28.40;96.70
35796;DHT22;21916;52.428;13.302;2023-06-26T09:13:30;28.40;96.00
35796;DHT22;21916;52.428;13.302;2023-06-26T09:15:57;28.50;96.60
35796;DHT22;21916;52.428;13.302;2023-06-26T09:18:23;28.50;96.20
35796;DHT22;21916;52.428;13.302;2023-06-26T09:20:49;28.70;96.40
35796;DHT22;21916;52.428;13.302;2023-06-26T09:23:15;28.80;95.40
35796;DHT22;21916;52.428;13.302;2023-06-26T09:25:42;28.80;95.80
35796;DHT22;21916;52.428;13.302;2023-06-26T09:28:08;28.90;94.70
35796;DHT22;21916;52.428;13.302;2023-06-26T09:30:36;28.70;95.00
35796;DHT22;21916;52.428;13.302;2023-06-26T09:33:18;28.90;96.40
35796;DHT22;21916;52.428;13.302;2023-06-26T09:35:45;29.00;95.10
35796;DHT22;21916;52.428;13.302;2023-06-26T09:38:14;29.10;95.30
35796;DHT22;21916;52.428;13.302;2023-06-26T09:40:44;29.20;94.00
35796;DHT22;21916;52.428;13.302;2023-06-26T09:43:13;29.10;93.80
35796;DHT22;21916;52.428;13.302;2023-06-26T09:45:39;29.00;94.20
35796;DHT22;21916;52.428;13.302;2023-06-26T09:48:06;29.30;94.70
35796;DHT22;21916;52.428;13.302;2023-06-26T09:50:34;29.30;93.80
35796;DHT22;21916;52.428;13.302;2023-06-26T09:53:11;29.40;94.10
35796;DHT22;21916;52.428;13.302;2023-06-26T09:55:39;29.60;94.20
35796;DHT22;21916;52.428;13.302;2023-06-26T09:58:06;29.60;92.40
35796;DHT22;21916;52.428;13.302;2023-06-26T10:00:32;29.40;93.20
35796;DHT22;21916;52.428;13.302;2023-06-26T10:03:01;29.70;93.30
35796;DHT22;21916;52.428;13.302;2023-06-26T10:05:28;29.80;92.60
35796;DHT22;21916;52.428;13.302;2023-06-26T10:07:54;29.90;93.20
35796;DHT22;21916;52.428;13.302;2023-06-26T10:10:23;29.80;92.60
35796;DHT22;21916;52.428;13.302;2023-06-26T10:12:56;29.70;92.60
35796;DHT22;21916;52.428;13.302;2023-06-26T10:15:25;29.80;93.50
35796;DHT22;21916;52.428;13.302;2023-06-26T10:17:56;29.90;92.00
35796;DHT22;21916;52.428;13.302;2023-06-26T10:20:23;29.90;92.60
35796;DHT22;21916;52.428;13.302;2023-06-26T10:22:50;30.30;92.20
35796;DHT22;21916;52.428;13.302;2023-06-26T10:25:18;30.20;92.30
35796;DHT22;21916;52.428;13.302;2023-06-26T10:27:53;30.30;92.70
35796;DHT22;21916;52.428;13.302;2023-06-26T10:30:24;30.50;92.40
35796;DHT22;21916;52.428;13.302;2023-06-26T10:32:50;30.80;92.10
35796;DHT22;21916;52.428;13.302;2023-06-26T10:35:17;31.20;91.60
35796;DHT22;21916;52.428;13.302;2023-06-26T10:37:46;31.50;90.80
35796;DHT22;21916;52.428;13.302;2023-06-26T10:40:17;31.90;90.40
35796;DHT22;21916;52.428;13.302;2023-06-26T10:42:46;31.80;90.70
35796;DHT22;21916;52.428;13.302;2023-06-26T10:45:18;32.40;90.50
35796;DHT22;21916;52.428;13.302;2023-06-26T10:47:49;33.40;88.50
35796;DHT22;21916;52.428;13.302;2023-06-26T10:55:32;34.10;82.50
35796;DHT22;21916;52.428;13.302;2023-06-26T10:57:58;34.20;82.60
35796;DHT22;21916;52.428;13.302;2023-06-26T11:00:24;33.70;80.20
35796;DHT22;21916;52.428;13.302;2023-06-26T11:02:50;33.10;82.00
35796;DHT22;21916;52.428;13.302;2023-06-26T11:05:32;33.20;82.10
35796;DHT22;21916;52.428;13.302;2023-06-26T11:08:06;34.00;81.40
35796;DHT22;21916;52.428;13.302;2023-06-26T11:10:53;35.00;79.10
35796;DHT22;21916;52.428;13.302;2023-06-26T11:13:20;35.60;78.40
35796;DHT22;21916;52.428;13.302;2023-06-26T11:15:47;35.90;78.00
35796;DHT22;21916;52.428;13.302;2023-06-26T11:18:13;36.40;75.60
35796;DHT22;21916;52.428;13.302;2023-06-26T11:20:41;36.40;75.00
35796;DHT22;21916;52.428;13.302;2023-06-26T11:23:08;36.90;73.40
35796;DHT22;21916;52.428;13.302;2023-06-26T11:25:38;37.30;73.90
35796;DHT22;21916;52.428;13.302;2023-06-26T11:28:09;37.90;71.80
35796;DHT22;21916;52.428;13.302;2023-06-26T11:30:36;37.00;70.20
35796;DHT22;21916;52.428;13.302;2023-06-26T11:33:06;37.90;71.60
35796;DHT22;21916;52.428;13.302;2023-06-26T11:35:33;38.60;69.60
35796;DHT22;21916;52.428;13.302;2023-06-26T11:38:01;38.80;66.80
35796;DHT22;21916;52.428;13.302;2023-06-26T11:40:35;38.20;66.30
35796;DHT22;21916;52.428;13.302;2023-06-26T11:43:02;37.80;67.20
35796;DHT22;21916;52.428;13.302;2023-06-26T11:45:32;38.10;65.60
35796;DHT22;21916;52.428;13.302;2023-06-26T11:47:59;38.00;66.00
35796;DHT22;21916;52.428;13.302;2023-06-26T11:50:25;37.80;65.60
35796;DHT22;21916;52.428;13.302;2023-06-26T11:52:56;38.80;64.60
35796;DHT22;21916;52.428;13.302;2023-06-26T11:55:26;39.70;64.70
35796;DHT22;21916;52.428;13.302;2023-06-26T11:57:56;40.40;64.60
35796;DHT22;21916;52.428;13.302;2023-06-26T12:00:23;40.80;63.10
35796;DHT22;21916;52.428;13.302;2023-06-26T12:02:49;40.40;61.50
35796;DHT22;21916;52.428;13.302;2023-06-26T12:05:16;40.10;61.80
35796;DHT22;21916;52.428;13.302;2023-06-26T12:07:47;40.00;62.30
35796;DHT22;21916;52.428;13.302;2023-06-26T12:10:14;40.30;62.10
35796;DHT22;21916;52.428;13.302;2023-06-26T12:12:41;40.60;60.80
35796;DHT22;21916;52.428;13.302;2023-06-26T12:15:08;41.30;61.30
35796;DHT22;21916;52.428;13.302;2023-06-26T12:17:39;41.90;59.30
35796;DHT22;21916;52.428;13.302;2023-06-26T12:20:06;39.90;60.70
35796;DHT22;21916;52.428;13.302;2023-06-26T12:22:42;39.40;61.40
35796;DHT22;21916;52.428;13.302;2023-06-26T12:25:08;39.40;61.70
35796;DHT22;21916;52.428;13.302;2023-06-26T12:27:35;40.30;59.80
35796;DHT22;21916;52.428;13.302;2023-06-26T12:30:03;40.60;60.80
35796;DHT22;21916;52.428;13.302;2023-06-26T12:32:29;40.70;59.70
35796;DHT22;21916;52.428;13.302;2023-06-26T12:34:57;40.00;59.50
35796;DHT22;21916;52.428;13.302;2023-06-26T12:37:23;39.80;60.00
35796;DHT22;21916;52.428;13.302;2023-06-26T12:39:51;39.90;59.60
35796;DHT22;21916;52.428;13.302;2023-06-26T12:42:22;39.70;59.60
35796;DHT22;21916;52.428;13.302;2023-06-26T12:44:49;39.90;59.50
35796;DHT22;21916;52.428;13.302;2023-06-26T12:47:16;39.90;59.80
35796;DHT22;21916;52.428;13.302;2023-06-26T12:49:44;40.20;59.30
35796;DHT22;21916;52.428;13.302;2023-06-26T12:52:14;40.60;59.20
35796;DHT22;21916;52.428;13.302;2023-06-26T12:54:44;40.60;59.30
35796;DHT22;21916;52.428;13.302;2023-06-26T12:57:10;40.60;58.70
35796;DHT22;21916;52.428;13.302;2023-06-26T12:59:37;38.90;59.10
35796;DHT22;21916;52.428;13.302;2023-06-26T13:02:03;37.90;61.10
35796;DHT22;21916;52.428;13.302;2023-06-26T13:04:30;37.60;60.80
35796;DHT22;21916;52.428;13.302;2023-06-26T13:06:57;37.20;61.40
35796;DHT22;21916;52.428;13.302;2023-06-26T13:09:26;36.20;61.80
35796;DHT22;21916;52.428;13.302;2023-06-26T13:11:53;36.30;62.60
35796;DHT22;21916;52.428;13.302;2023-06-26T13:14:19;35.80;62.60
35796;DHT22;21916;52.428;13.302;2023-06-26T13:16:46;35.70;64.40
35796;DHT22;21916;52.428;13.302;2023-06-26T13:19:12;36.00;62.70
35796;DHT22;21916;52.428;13.302;2023-06-26T13:21:38;35.20;64.50
35796;DHT22;21916;52.428;13.302;2023-06-26T13:24:05;34.10;64.40
35796;DHT22;21916;52.428;13.302;2023-06-26T13:26:31;34.00;66.00
35796;DHT22;21916;52.428;13.302;2023-06-26T13:28:57;34.50;64.40
35796;DHT22;21916;52.428;13.302;2023-06-26T13:31:23;35.30;65.00
35796;DHT22;21916;52.428;13.302;2023-06-26T13:33:49;35.70;64.40
35796;DHT22;21916;52.428;13.302;2023-06-26T13:36:16;36.20;64.80
35796;DHT22;21916;52.428;13.302;2023-06-26T13:38:42;36.70;64.00
35796;DHT22;21916;52.428;13.302;2023-06-26T13:41:08;36.90;61.60
35796;DHT22;21916;52.428;13.302;2023-06-26T13:43:34;37.80;62.40
35796;DHT22;21916;52.428;13.302;2023-06-26T13:46:00;38.30;61.10
35796;DHT22;21916;52.428;13.302;2023-06-26T13:48:29;37.00;60.80
35796;DHT22;21916;52.428;13.302;2023-06-26T13:50:55;36.30;61.70
35796;DHT22;21916;52.428;13.302;2023-06-26T13:53:22;36.20;62.40
35796;DHT22;21916;52.428;13.302;2023-06-26T13:55:48;35.60;62.70
35796;DHT22;21916;52.428;13.302;2023-06-26T13:58:14;35.20;63.90
35796;DHT22;21916;52.428;13.302;2023-06-26T14:00:40;35.30;63.40
35796;DHT22;21916;52.428;13.302;2023-06-26T14:03:07;34.60;64.30
35796;DHT22;21916;52.428;13.302;2023-06-26T14:05:33;33.70;65.50
35796;DHT22;21916;52.428;13.302;2023-06-26T14:08:01;32.90;65.20
35796;DHT22;21916;52.428;13.302;2023-06-26T14:10:27;32.10;66.00
35796;DHT22;21916;52.428;13.302;2023-06-26T14:12:53;31.60;67.10
35796;DHT22;21916;52.428;13.302;2023-06-26T14:15:19;31.30;68.40
35796;DHT22;21916;52.428;13.302;2023-06-26T14:17:45;31.00;69.10
35796;DHT22;21916;52.428;13.302;2023-06-26T14:20:13;30.70;70.10
35796;DHT22;21916;52.428;13.302;2023-06-26T14:22:40;29.40;79.90
35796;DHT22;21916;52.428;13.302;2023-06-26T14:25:07;26.40;94.30
35796;DHT22;21916;52.428;13.302;2023-06-26T14:27:34;23.80;99.90
35796;DHT22;21916;52.428;13.302;2023-06-26T14:30:00;22.50;99.90
35796;DHT22;21916;52.428;13.302;2023-06-26T14:32:26;21.70;99.90
35796;DHT22;21916;52.428;13.302;2023-06-26T14:34:52;21.30;99.90
35796;DHT22;21916;52.428;13.302;2023-06-26T14:37:17;21.00;99.90
35796;DHT22;21916;52.428;13.302;2023-06-26T14:39:45;20.90;99.90
35796;DHT22;21916;52.428;13.302;2023-06-26T14:42:10;20.70;99.90
35796;DHT22;21916;52.428;13.302;2023-06-26T14:44:36;20.60;99.90
35796;DHT22;21916;52.428;13.302;2023-06-26T14:47:02;20.60;99.90
35796;DHT22;21916;52.428;13.302;2023-06-26T14:49:28;20.60;99.90
35796;DHT22;21916;52.428;13.302;2023-06-26T14:51:54;20.60;99.90
35796;DHT22;21916;52.428;13.302;2023-06-26T14:54:20;20.70;99.90
35796;DHT22;21916;52.428;13.302;2023-06-26T14:56:46;20.60;99.90
35796;DHT22;21916;52.428;13.302;2023-06-26T14:59:12;20.60;99.90
35796;DHT22;21916;52.428;13.302;2023-06-26T15:01:39;20.50;99.90
35796;DHT22;21916;52.428;13.302;2023-06-26T15:04:08;20.40;99.90
35796;DHT22;21916;52.428;13.302;2023-06-26T15:06:34;20.40;99.90
35796;DHT22;21916;52.428;13.302;2023-06-26T15:09:00;20.30;99.90
35796;DHT22;21916;52.428;13.302;2023-06-26T15:11:28;20.30;99.90
35796;DHT22;21916;52.428;13.302;2023-06-26T15:13:55;20.20;99.90
35796;DHT22;21916;52.428;13.302;2023-06-26T15:16:21;20.20;99.90
35796;DHT22;21916;52.428;13.302;2023-06-26T15:18:48;20.20;99.90
35796;DHT22;21916;52.428;13.302;2023-06-26T15:21:13;20.20;99.90
35796;DHT22;21916;52.428;13.302;2023-06-26T15:23:39;20.20;99.90